Time;durP1;ratioP1;P1;durP2;ratioP2;P2;SDS_P1;SDS_P2;PMS_P1;PMS_P2;Temp;Humidity;BMP_temperature;BMP_pressure;BME280_temperature;BME280_humidity;BME280_pressure;Samples;Min_cycle;Max_cycle;Signal;HPM_P1;HPM_P2
2023/11/18 00:01:48;;;;;;;11.38;7.75;;;;;;;10.13;100.00;99089.66;6122119;23;20017;-83
2023/11/18 00:04:17;;;;;;;9.27;6.50;;;;;;;10.04;100.00;99083.91;6120531;23;20041;-83
2023/11/18 00:06:46;;;;;;;10.25;6.80;;;;;;;10.07;100.00;99088.75;6120617;23;20020;-84
2023/11/18 00:09:15;;;;;;;12.63;7.32;;;;;;;10.00;100.00;99078.25;6122151;23;20010;-86
2023/11/18 00:11:42;;;;;;;10.88;7.18;;;;;;;10.07;100.00;99094.06;6122139;23;20507;-84
2023/11/18 00:14:08;;;;;;;10.90;7.38;;;;;;;10.30;100.00;99089.69;6120811;23;20036;-84
2023/11/18 00:16:34;;;;;;;11.00;7.35;;;;;;;10.35;100.00;99108.44;6120440;23;20440;-83
2023/11/18 00:19:00;;;;;;;10.00;7.15;;;;;;;10.22;100.00;99101.53;6122096;23;20029;-86
2023/11/18 00:21:25;;;;;;;11.25;6.88;;;;;;;10.13;100.00;99103.78;6120496;23;20010;-85
2023/11/18 00:23:51;;;;;;;11.82;8.30;;;;;;;9.97;100.00;99109.88;6120793;23;20100;-84
2023/11/18 00:26:16;;;;;;;10.35;7.25;;;;;;;9.50;100.00;99102.88;6121009;23;20017;-82
2023/11/18 00:28:42;;;;;;;13.27;8.68;;;;;;;9.17;100.00;99098.97;6120732;23;20420;-83
2023/11/18 00:31:07;;;;;;;13.05;8.63;;;;;;;9.50;100.00;99113.53;6120888;23;20006;-87
2023/11/18 00:33:33;;;;;;;14.73;9.65;;;;;;;9.69;100.00;99105.38;6120503;23;20017;-83
2023/11/18 00:36:00;;;;;;;14.63;9.15;;;;;;;9.93;100.00;99130.88;6120689;23;20002;-85
2023/11/18 00:38:26;;;;;;;15.23;9.52;;;;;;;9.93;100.00;99124.72;6122138;23;20068;-87
2023/11/18 00:40:51;;;;;;;12.93;8.88;;;;;;;10.18;100.00;99143.84;6120720;23;20437;-83
2023/11/18 00:43:17;;;;;;;12.98;9.15;;;;;;;9.85;100.00;99126.72;6122101;23;20013;-83
2023/11/18 00:45:43;;;;;;;14.65;8.75;;;;;;;9.88;100.00;99109.44;6122181;23;20032;-83
2023/11/18 00:48:09;;;;;;;12.98;9.07;;;;;;;9.91;100.00;99116.97;6120607;23;20010;-83
2023/11/18 00:50:35;;;;;;;13.35;9.15;;;;;;;9.62;100.00;99078.84;6120547;23;20021;-84
2023/11/18 00:53:00;;;;;;;12.98;8.77;;;;;;;9.95;100.00;99104.81;6122053;23;20006;-84
2023/11/18 00:55:26;;;;;;;12.82;8.85;;;;;;;10.01;100.00;99087.88;6122084;23;20038;-83
2023/11/18 00:57:52;;;;;;;13.23;9.50;;;;;;;10.19;100.00;99094.03;6122381;23;20098;-84
2023/11/18 01:00:21;;;;;;;13.18;8.20;;;;;;;10.32;100.00;99112.41;6120145;23;20014;-84
2023/11/18 01:02:48;;;;;;;14.15;9.43;;;;;;;10.14;100.00;99086.75;6120340;23;20021;-83
2023/11/18 01:05:15;;;;;;;12.82;8.98;;;;;;;10.21;100.00;99108.72;6120214;23;20013;-83
2023/11/18 01:07:40;;;;;;;13.50;8.27;;;;;;;10.10;100.00;99106.13;6120545;23;20020;-83
2023/11/18 01:10:07;;;;;;;12.65;8.10;;;;;;;9.91;100.00;99082.34;6122252;23;20014;-83
2023/11/18 01:12:33;;;;;;;12.13;8.38;;;;;;;10.16;100.00;99099.84;6122202;23;20040;-83
2023/11/18 01:14:59;;;;;;;12.90;8.43;;;;;;;9.99;100.00;99068.66;6123969;23;20002;-83
2023/11/18 01:17:25;;;;;;;14.30;8.63;;;;;;;10.18;100.00;99081.75;6122379;23;20325;-84
2023/11/18 01:19:50;;;;;;;13.85;8.95;;;;;;;10.18;100.00;99087.91;6122285;23;20081;-83
2023/11/18 01:22:18;;;;;;;12.70;8.32;;;;;;;9.91;100.00;99065.53;6122321;23;20013;-84
2023/11/18 01:24:44;;;;;;;14.38;8.50;;;;;;;10.05;100.00;99099.66;6122455;23;20360;-86
2023/11/18 01:27:09;;;;;;;27.98;16.30;;;;;;;10.05;100.00;99073.03;6123985;23;20445;-83
2023/11/18 01:29:35;;;;;;;100.03;51.35;;;;;;;9.77;100.00;99075.69;6122534;23;20006;-83
2023/11/18 01:32:08;;;;;;;16.25;10.57;;;;;;;9.86;100.00;99116.88;6122148;23;20010;-84
2023/11/18 01:34:34;;;;;;;12.00;8.77;;;;;;;9.81;100.00;99085.63;6122541;23;20021;-83
2023/11/18 01:37:00;;;;;;;12.82;8.13;;;;;;;10.02;100.00;99072.69;6122009;23;20085;-87
2023/11/18 01:39:26;;;;;;;14.10;8.93;;;;;;;10.28;100.00;99089.94;6122267;23;20406;-83
2023/11/18 01:41:52;;;;;;;12.15;9.02;;;;;;;10.20;100.00;99069.00;6122320;23;20010;-84
2023/11/18 01:44:19;;;;;;;11.77;8.45;;;;;;;10.38;100.00;99087.47;6122350;23;20016;-83
2023/11/18 01:46:45;;;;;;;12.98;8.82;;;;;;;9.90;100.00;99051.44;6121973;23;20065;-84
2023/11/18 01:49:14;;;;;;;12.52;9.68;;;;;;;9.87;100.00;99075.88;6126254;23;20025;-84
2023/11/18 01:51:45;;;;;;;13.73;9.05;;;;;;;9.74;100.00;99081.50;6127110;23;20069;-84
2023/11/18 01:54:18;;;;;;;12.15;7.97;;;;;;;9.75;100.00;99072.47;6127150;23;20007;-84
2023/11/18 01:56:48;;;;;;;14.38;8.63;;;;;;;10.05;100.00;99099.66;6153340;23;20044;-84
2023/11/18 01:59:18;;;;;;;12.65;9.05;;;;;;;10.12;100.00;99093.38;6152989;23;20005;-84
2023/11/18 02:01:53;;;;;;;12.45;9.00;;;;;;;10.23;100.00;99087.16;6152716;23;20013;-86
2023/11/18 02:04:20;;;;;;;13.70;8.73;;;;;;;10.21;100.00;99102.59;6126947;23;20503;-83
2023/11/18 02:06:48;;;;;;;12.68;8.68;;;;;;;10.23;100.00;99097.81;6127225;23;20449;-84
2023/11/18 02:09:18;;;;;;;14.00;9.63;;;;;;;10.32;100.00;99096.44;6127049;23;20006;-85
2023/11/18 02:11:54;;;;;;;12.95;9.07;;;;;;;10.10;100.00;99050.19;6126941;23;20005;-84
2023/11/18 02:14:22;;;;;;;12.82;9.05;;;;;;;10.13;100.00;99079.00;6126825;23;20006;-84
2023/11/18 02:16:53;;;;;;;15.35;9.82;;;;;;;9.96;100.00;99082.44;6126657;23;20005;-88
2023/11/18 02:19:24;;;;;;;16.65;10.90;;;;;;;10.11;100.00;99073.91;6126681;23;20530;-83
2023/11/18 02:21:53;;;;;;;17.73;13.32;;;;;;;9.70;100.00;99038.56;6126888;23;20012;-84
2023/11/18 02:24:27;;;;;;;10.68;6.80;;;;;;;10.09;100.00;99096.50;6152557;23;20084;-84
2023/11/18 02:26:55;;;;;;;9.70;6.40;;;;;;;9.92;100.00;99057.31;6152781;23;20471;-85
2023/11/18 02:29:20;;;;;;;11.20;6.35;;;;;;;9.89;100.00;99092.44;6126485;23;20066;-84
2023/11/18 02:31:49;;;;;;;9.85;6.60;;;;;;;9.73;100.00;99074.56;6126172;23;20009;-84
2023/11/18 02:34:27;;;;;;;8.32;5.82;;;;;;;9.58;100.00;99083.88;6126311;23;20005;-85
2023/11/18 02:36:53;;;;;;;;;;;;;;;9.86;100.00;99104.34;6127293;23;20016;-85
2023/11/18 02:39:39;;;;;;;5.07;2.95;;;;;;;9.51;100.00;99074.41;6126141;23;19940;-85
2023/11/18 02:42:10;;;;;;;2.60;1.38;;;;;;;9.11;100.00;99067.19;6126711;23;20036;-85
2023/11/18 02:44:36;;;;;;;2.03;1.42;;;;;;;9.10;100.00;99097.50;6126254;23;20009;-85
2023/11/18 02:47:05;;;;;;;2.60;1.50;;;;;;;8.97;100.00;99093.19;6126794;23;20005;-83
2023/11/18 02:49:31;;;;;;;1.58;1.10;;;;;;;8.70;100.00;99083.03;6151968;23;20021;-82
2023/11/18 02:51:56;;;;;;;2.15;1.10;;;;;;;8.49;100.00;99049.88;6126539;23;20104;-83
2023/11/18 02:54:22;;;;;;;1.90;1.00;;;;;;;8.49;100.00;99065.81;6128382;23;20045;-86
2023/11/18 02:56:48;;;;;;;1.58;1.10;;;;;;;8.52;100.00;99080.47;6153885;23;20089;-82
2023/11/18 02:59:13;;;;;;;1.20;1.10;;;;;;;8.35;100.00;99065.19;6126275;23;20009;-83
2023/11/18 03:01:39;;;;;;;1.67;1.27;;;;;;;8.57;100.00;99075.31;6126230;23;20002;-84
2023/11/18 03:04:05;;;;;;;2.00;1.27;;;;;;;8.55;100.00;99106.59;6125913;23;20013;-83
2023/11/18 03:06:32;;;;;;;1.77;1.08;;;;;;;8.30;100.00;99061.63;6151864;23;20040;-84
2023/11/18 03:08:58;;;;;;;1.95;1.20;;;;;;;8.39;100.00;99066.34;6152244;23;20005;-82
2023/11/18 03:11:24;;;;;;;1.50;1.10;;;;;;;8.30;100.00;99035.84;6151400;23;20012;-82
2023/11/18 03:13:50;;;;;;;1.75;1.17;;;;;;;8.65;100.00;99070.44;6126096;23;20094;-83
2023/11/18 03:16:16;;;;;;;1.40;0.98;;;;;;;8.35;100.00;99040.47;6128064;23;20014;-81
2023/11/18 03:18:42;;;;;;;1.48;1.00;;;;;;;8.41;100.00;99058.19;6125569;23;20152;-81
2023/11/18 03:21:12;;;;;;;1.67;1.08;;;;;;;8.35;100.00;99054.56;6125993;23;20040;-81
2023/11/18 03:23:38;;;;;;;1.75;1.00;;;;;;;8.36;100.00;99066.00;6125625;23;20013;-82
2023/11/18 03:26:05;;;;;;;1.05;0.60;;;;;;;8.34;100.00;99068.88;6126056;23;20013;-83
2023/11/18 03:28:31;;;;;;;1.33;1.08;;;;;;;8.35;100.00;99064.38;6151646;23;20015;-81
2023/11/18 03:30:57;;;;;;;1.13;0.90;;;;;;;8.28;100.00;99093.72;6125720;23;20030;-81
2023/11/18 03:33:22;;;;;;;1.45;0.90;;;;;;;8.23;100.00;99061.69;6125734;23;20002;-82
2023/11/18 03:35:48;;;;;;;1.48;0.95;;;;;;;8.32;100.00;99083.44;6125295;23;20012;-84
2023/11/18 03:38:13;;;;;;;2.15;0.90;;;;;;;8.10;100.00;99070.69;6125336;23;20336;-83
2023/11/18 03:40:41;;;;;;;1.83;0.88;;;;;;;7.83;100.00;99038.41;6125606;23;20005;-82
2023/11/18 03:43:07;;;;;;;0.82;0.73;;;;;;;7.93;100.00;99038.66;6125533;23;20005;-82
2023/11/18 03:45:33;;;;;;;1.58;0.90;;;;;;;7.99;100.00;99053.69;6125884;23;20009;-80
2023/11/18 03:48:00;;;;;;;1.42;0.85;;;;;;;7.90;100.00;99057.69;6151365;23;20100;-83
2023/11/18 03:50:26;;;;;;;0.95;0.77;;;;;;;7.71;100.00;99022.44;6120290;23;20460;-82
2023/11/18 03:52:52;;;;;;;1.35;0.80;;;;;;;7.89;100.00;99050.75;6122499;23;20025;-82
2023/11/18 03:55:18;;;;;;;0.90;0.75;;;;;;;7.40;100.00;99023.47;6122139;23;20409;-83
2023/11/18 03:57:45;;;;;;;2.70;1.30;;;;;;;7.69;100.00;99093.50;6120982;23;20010;-82
2023/11/18 04:00:11;;;;;;;2.30;1.10;;;;;;;7.79;100.00;99125.63;6120624;23;20037;-84
2023/11/18 04:02:37;;;;;;;1.15;0.80;;;;;;;7.64;100.00;99111.91;6120815;23;20013;-82
2023/11/18 04:05:03;;;;;;;2.50;0.77;;;;;;;7.61;100.00;99107.88;6120813;23;20017;-82
2023/11/18 04:07:29;;;;;;;1.20;0.68;;;;;;;7.62;100.00;99114.81;6120600;23;20092;-83
2023/11/18 04:09:54;;;;;;;1.30;0.90;;;;;;;7.42;100.00;99082.41;6120524;23;20033;-84
2023/11/18 04:12:20;;;;;;;0.82;0.80;;;;;;;7.73;100.00;99099.19;6120796;23;20013;-83
2023/11/18 04:14:45;;;;;;;2.35;1.10;;;;;;;7.52;100.00;99066.78;6121936;23;20002;-83
2023/11/18 04:17:11;;;;;;;1.65;0.80;;;;;;;7.48;100.00;99055.00;6120065;23;20567;-84
2023/11/18 04:19:37;;;;;;;1.67;0.73;;;;;;;7.75;100.00;99078.53;6121932;23;20010;-82
2023/11/18 04:22:04;;;;;;;1.33;0.70;;;;;;;7.64;100.00;99091.53;6120064;23;20010;-85
2023/11/18 04:24:29;;;;;;;1.25;0.90;;;;;;;7.75;100.00;99083.84;6120192;23;20010;-81
2023/11/18 04:26:55;;;;;;;1.17;0.57;;;;;;;7.78;100.00;99083.38;6120264;23;20017;-81
2023/11/18 04:29:22;;;;;;;4.68;1.92;;;;;;;7.54;100.00;99064.72;6120292;23;20073;-84
2023/11/18 04:31:48;;;;;;;1.15;0.77;;;;;;;7.54;100.00;99059.41;6119867;23;20080;-82
2023/11/18 04:34:13;;;;;;;2.05;1.00;;;;;;;7.59;100.00;99062.19;6120420;23;20014;-83
2023/11/18 04:36:41;;;;;;;0.82;0.73;;;;;;;7.36;100.00;99044.31;6120404;23;20008;-82
2023/11/18 04:39:06;;;;;;;1.17;0.90;;;;;;;7.57;100.00;99061.59;6120349;23;20348;-83
2023/11/18 04:41:32;;;;;;;1.50;0.88;;;;;;;7.54;100.00;99075.31;6120057;23;20452;-82
2023/11/18 04:43:58;;;;;;;1.85;0.90;;;;;;;7.36;100.00;99062.88;6120320;23;20089;-81
2023/11/18 04:46:23;;;;;;;2.30;1.15;;;;;;;7.49;100.00;99093.72;6120571;23;20006;-83
2023/11/18 04:48:48;;;;;;;1.42;0.85;;;;;;;7.55;100.00;99113.28;6122356;23;20006;-83
2023/11/18 04:51:14;;;;;;;1.48;1.02;;;;;;;7.39;100.00;99104.06;6121185;23;20589;-82
2023/11/18 04:53:39;;;;;;;1.67;1.05;;;;;;;7.62;100.00;99141.34;6122243;23;20020;-81
2023/11/18 04:56:09;;;;;;;1.33;0.95;;;;;;;7.61;100.00;99118.47;6123272;23;20089;-80
2023/11/18 04:58:36;;;;;;;2.00;0.90;;;;;;;7.69;100.00;99124.53;6121410;23;20020;-81
2023/11/18 05:01:01;;;;;;;1.02;0.80;;;;;;;7.29;100.00;99101.91;6122996;23;20092;-82
2023/11/18 05:03:27;;;;;;;4.82;1.60;;;;;;;7.40;100.00;99124.25;6121725;23;20034;-80
2023/11/18 05:05:52;;;;;;;1.92;1.40;;;;;;;7.28;100.00;99141.94;6123709;23;20017;-81
2023/11/18 05:08:19;;;;;;;2.63;1.20;;;;;;;7.33;100.00;99142.06;6122086;23;20010;-81
2023/11/18 05:10:49;;;;;;;3.00;1.35;;;;;;;7.20;100.00;99108.56;6121836;23;20355;-83
2023/11/18 05:13:16;;;;;;;2.75;1.77;;;;;;;7.12;100.00;99099.03;6123817;23;20013;-85
2023/11/18 05:15:45;;;;;;;9.55;4.57;;;;;;;7.13;100.00;99094.53;6122664;23;20009;-83
2023/11/18 05:18:13;;;;;;;10.60;4.82;;;;;;;7.37;99.86;99117.53;6124618;23;20898;-85
2023/11/18 05:20:39;;;;;;;8.77;4.93;;;;;;;7.38;100.00;99107.75;6122761;23;20028;-85
2023/11/18 05:23:05;;;;;;;2.17;1.75;;;;;;;7.36;98.79;99109.81;6122379;23;20037;-85
2023/11/18 05:25:33;;;;;;;3.10;1.88;;;;;;;7.22;99.15;99102.00;6122814;23;20014;-87
2023/11/18 05:27:59;;;;;;;3.13;1.70;;;;;;;7.27;98.66;99117.22;6122789;23;20774;-85
2023/11/18 05:30:25;;;;;;;4.40;2.30;;;;;;;7.20;99.58;99106.69;6122829;23;20436;-85
2023/11/18 05:32:51;;;;;;;2.60;1.40;;;;;;;7.18;99.65;99127.31;6123044;23;20010;-85
2023/11/18 05:35:17;;;;;;;3.78;1.70;;;;;;;7.38;98.46;99131.63;6122654;23;20014;-84
2023/11/18 05:37:43;;;;;;;2.38;1.45;;;;;;;7.13;98.46;99099.84;6123019;23;20069;-87
2023/11/18 05:40:11;;;;;;;1.65;1.23;;;;;;;7.34;98.30;99123.28;6122522;23;20041;-85
2023/11/18 05:42:37;;;;;;;2.70;1.70;;;;;;;7.33;98.19;99120.84;6122422;23;20020;-87
2023/11/18 05:45:04;;;;;;;3.33;1.80;;;;;;;7.37;97.49;99130.00;6122547;23;20049;-85
2023/11/18 05:47:30;;;;;;;2.55;1.58;;;;;;;6.99;98.76;99093.88;6122723;23;20010;-85
2023/11/18 05:49:55;;;;;;;2.83;1.88;;;;;;;7.26;97.83;99142.16;6122237;23;20109;-85
2023/11/18 05:52:22;;;;;;;3.50;1.85;;;;;;;7.06;97.96;99134.38;6122167;23;20017;-83
2023/11/18 05:54:48;;;;;;;2.65;1.98;;;;;;;6.96;97.92;99110.22;6122155;23;20013;-84
2023/11/18 05:57:17;;;;;;;4.93;2.28;;;;;;;7.18;97.04;99153.84;6122188;23;20092;-85
2023/11/18 05:59:43;;;;;;;5.38;2.15;;;;;;;7.03;96.88;99134.84;6121273;23;20010;-84
2023/11/18 06:02:12;;;;;;;3.25;1.92;;;;;;;7.01;94.36;99145.66;6122009;23;20085;-85
2023/11/18 06:04:38;;;;;;;4.60;2.47;;;;;;;6.98;94.96;99159.31;6122395;23;20006;-84
2023/11/18 06:07:04;;;;;;;5.18;2.70;;;;;;;7.00;94.96;99145.84;6122151;23;20017;-85
2023/11/18 06:09:30;;;;;;;3.83;2.55;;;;;;;6.93;93.89;99151.22;6122365;23;20329;-86
2023/11/18 06:11:55;;;;;;;5.78;3.30;;;;;;;7.01;95.01;99166.84;6122227;23;20482;-85
2023/11/18 06:14:21;;;;;;;3.97;2.80;;;;;;;6.87;93.22;99138.03;6122371;23;20103;-86
2023/11/18 06:16:50;;;;;;;6.25;3.20;;;;;;;7.15;92.72;99183.47;6122281;23;20400;-85
2023/11/18 06:19:16;;;;;;;7.28;3.30;;;;;;;6.96;93.22;99163.22;6122202;23;20436;-86
2023/11/18 06:21:41;;;;;;;4.80;2.50;;;;;;;6.96;93.12;99173.84;6122267;23;20014;-86
2023/11/18 06:24:07;;;;;;;4.20;2.67;;;;;;;7.00;92.55;99161.75;6122176;23;20009;-86
2023/11/18 06:26:35;;;;;;;5.53;2.85;;;;;;;7.02;92.13;99168.47;6122120;23;20020;-86
2023/11/18 06:29:01;;;;;;;3.55;2.50;;;;;;;7.03;92.44;99148.91;6122176;23;20014;-86
2023/11/18 06:31:30;;;;;;;3.88;2.35;;;;;;;7.06;92.85;99171.50;6122377;23;20024;-86
2023/11/18 06:33:56;;;;;;;5.10;3.00;;;;;;;6.84;93.56;99155.16;6122310;23;20025;-84
2023/11/18 06:36:22;;;;;;;4.78;2.70;;;;;;;7.01;92.29;99187.25;6122511;23;20060;-86
2023/11/18 06:38:52;;;;;;;6.65;3.10;;;;;;;7.02;93.35;99194.97;6122218;23;20006;-86
2023/11/18 06:41:22;;;;;;;4.35;2.92;;;;;;;7.11;92.69;99203.50;6122104;23;20432;-84
2023/11/18 06:43:51;;;;;;;4.30;2.63;;;;;;;7.01;91.96;99197.88;6121982;23;20049;-85
2023/11/18 06:46:29;;;;;;;5.28;3.30;;;;;;;7.10;91.64;99193.09;6121987;23;20102;-86
2023/11/18 06:48:55;;;;;;;4.93;3.37;;;;;;;6.90;90.93;99172.03;6122157;23;20318;-85
2023/11/18 06:51:27;;;;;;;3.97;2.63;;;;;;;7.07;89.63;99175.78;6126662;23;20264;-85
2023/11/18 06:53:55;;;;;;;6.63;3.30;;;;;;;6.86;91.46;99131.91;6126629;23;20009;-84
2023/11/18 06:56:21;;;;;;;4.20;3.03;;;;;;;6.92;89.60;99162.03;6126601;23;20368;-87
2023/11/18 06:58:47;;;;;;;5.15;3.13;;;;;;;6.83;90.12;99170.25;6126745;23;20014;-85
2023/11/18 07:01:15;;;;;;;5.18;3.50;;;;;;;6.88;89.92;99160.84;6126446;23;20010;-85
2023/11/18 07:03:46;;;;;;;10.82;4.18;;;;;;;6.84;90.75;99156.00;6126207;23;20039;-85
2023/11/18 07:06:14;;;;;;;6.70;3.60;;;;;;;6.84;89.71;99163.13;6126920;23;20013;-85
2023/11/18 07:08:40;;;;;;;5.22;3.67;;;;;;;6.84;88.90;99153.34;6126448;23;20039;-85
2023/11/18 07:11:06;;;;;;;5.90;3.33;;;;;;;6.77;87.81;99157.88;6126820;23;20013;-87
2023/11/18 07:13:34;;;;;;;4.38;3.13;;;;;;;6.69;87.48;99184.66;6126351;23;20013;-86
2023/11/18 07:16:02;;;;;;;3.88;2.70;;;;;;;6.63;88.62;99185.50;6126382;23;20077;-84
2023/11/18 07:18:30;;;;;;;5.72;3.80;;;;;;;6.63;87.97;99164.31;6126626;23;20024;-84
2023/11/18 07:20:56;;;;;;;4.40;3.20;;;;;;;6.80;87.82;99164.56;6126297;23;20009;-85
2023/11/18 07:23:21;;;;;;;4.53;2.97;;;;;;;6.72;85.02;99136.53;6152624;23;20415;-84
2023/11/18 07:25:47;;;;;;;4.50;3.15;;;;;;;6.56;85.38;99121.97;6126586;23;20016;-87
2023/11/18 07:28:14;;;;;;;4.35;2.47;;;;;;;6.91;84.64;99165.72;6126701;23;20064;-86
2023/11/18 07:30:42;;;;;;;4.38;3.00;;;;;;;6.96;85.05;99168.53;6126414;23;20010;-85
2023/11/18 07:33:08;;;;;;;6.60;2.47;;;;;;;6.90;84.93;99148.19;6126930;23;20017;-86
2023/11/18 07:35:36;;;;;;;5.45;3.03;;;;;;;7.00;84.51;99169.72;6126436;23;20384;-85
2023/11/18 07:38:02;;;;;;;5.90;3.00;;;;;;;7.02;84.11;99168.47;6126801;23;20024;-85
2023/11/18 07:40:33;;;;;;;6.03;3.05;;;;;;;7.00;82.12;99132.59;6126780;23;20017;-86
2023/11/18 07:43:01;;;;;;;5.00;2.85;;;;;;;7.09;81.49;99159.63;6126870;23;20013;-84
2023/11/18 07:45:28;;;;;;;4.38;2.70;;;;;;;6.96;80.90;99126.13;6126581;23;20009;-84
2023/11/18 07:47:55;;;;;;;7.32;4.72;;;;;;;7.27;81.38;99153.56;6129435;23;20009;-85
2023/11/18 07:50:21;;;;;;;5.78;3.30;;;;;;;7.29;81.31;99157.59;6140874;23;20017;-85
2023/11/18 07:52:48;;;;;;;3.38;2.25;;;;;;;7.16;79.42;99171.00;6142858;23;20010;-85
2023/11/18 07:55:14;;;;;;;3.03;2.40;;;;;;;7.01;78.77;99121.78;6140753;23;20388;-84
2023/11/18 07:57:40;;;;;;;3.10;2.30;;;;;;;7.26;78.88;99149.31;6138759;23;20009;-87
2023/11/18 08:00:10;;;;;;;4.05;2.53;;;;;;;7.47;79.12;99180.69;6141087;23;20425;-85
2023/11/18 08:02:36;;;;;;;3.58;2.13;;;;;;;7.47;79.21;99156.81;6135621;23;20006;-86
2023/11/18 08:05:03;;;;;;;4.68;2.17;;;;;;;7.60;79.92;99142.59;6130989;23;20013;-85
2023/11/18 08:07:28;;;;;;;4.03;2.42;;;;;;;8.34;75.07;99164.53;6131817;23;20015;-86
2023/11/18 08:09:54;;;;;;;2.45;1.60;;;;;;;7.73;74.99;99131.03;6131803;23;20065;-84
2023/11/18 08:12:20;;;;;;;2.88;1.70;;;;;;;7.65;76.39;99148.84;6131547;23;20010;-85
2023/11/18 08:14:47;;;;;;;2.05;1.33;;;;;;;7.52;76.06;99153.50;6130427;23;20005;-86
2023/11/18 08:17:13;;;;;;;2.38;1.55;;;;;;;7.64;75.35;99154.38;6129408;23;19998;-85
2023/11/18 08:19:39;;;;;;;3.08;1.80;;;;;;;7.24;74.63;99102.59;6127316;23;20065;-86
2023/11/18 08:22:05;;;;;;;2.55;1.50;;;;;;;7.47;75.23;99148.06;6129116;23;20053;-88
2023/11/18 08:24:33;;;;;;;3.10;1.60;;;;;;;7.51;74.60;99143.94;6156200;23;20001;-86
2023/11/18 08:26:58;;;;;;;3.03;1.45;;;;;;;7.74;75.43;99169.78;6130316;23;20006;-87
2023/11/18 08:29:28;;;;;;;5.82;1.58;;;;;;;7.68;75.10;99150.25;6129881;23;20104;-86
2023/11/18 08:31:53;;;;;;;1.70;1.02;;;;;;;7.62;74.85;99157.28;6130197;23;20096;-84
2023/11/18 08:34:19;;;;;;;2.45;1.45;;;;;;;7.68;74.63;99152.91;6129477;23;20036;-86
2023/11/18 08:36:44;;;;;;;1.40;1.20;;;;;;;7.58;73.28;99145.47;6129805;23;20005;-85
2023/11/18 08:39:10;;;;;;;1.35;1.20;;;;;;;7.58;73.39;99158.75;6130218;23;20301;-82
2023/11/18 08:41:36;;;;;;;2.70;1.15;;;;;;;7.56;73.67;99150.19;6129288;23;20009;-84
2023/11/18 08:44:02;;;;;;;2.25;1.13;;;;;;;7.48;72.23;99160.28;6129294;23;20014;-85
2023/11/18 08:46:27;;;;;;;2.97;1.25;;;;;;;7.24;74.05;99118.50;6129543;23;20335;-86
2023/11/18 08:48:55;;;;;;;3.50;1.63;;;;;;;7.48;71.64;99161.09;6129511;23;20076;-86
2023/11/18 08:51:21;;;;;;;5.85;2.63;;;;;;;7.50;72.99;99164.34;6130036;23;20009;-88
2023/11/18 08:53:47;;;;;;;1.35;0.77;;;;;;;7.16;72.74;99137.34;6129096;23;20009;-87
2023/11/18 08:56:16;;;;;;;2.90;1.10;;;;;;;7.37;73.04;99159.16;6129173;23;20014;-85
2023/11/18 08:58:44;;;;;;;1.67;1.20;;;;;;;7.69;73.41;99167.81;6128991;23;20009;-84
2023/11/18 09:01:14;;;;;;;2.08;1.30;;;;;;;7.39;73.06;99125.28;6129024;23;20009;-85
2023/11/18 09:03:43;;;;;;;1.92;1.08;;;;;;;7.39;72.67;99130.56;6128966;23;20009;-87
2023/11/18 09:06:25;;;;;;;1.35;0.60;;;;;;;7.36;72.19;99123.09;6129349;23;20012;-86
2023/11/18 09:08:54;;;;;;;1.30;0.90;;;;;;;7.71;71.82;99146.34;6129290;23;20013;-85
2023/11/18 09:11:22;;;;;;;2.85;0.90;;;;;;;7.83;69.79;99163.97;6129372;23;20072;-85
2023/11/18 09:13:51;;;;;;;3.30;1.20;;;;;;;7.61;70.29;99138.91;6129058;23;20013;-84
2023/11/18 09:16:16;;;;;;;18.58;1.88;;;;;;;7.67;72.33;99163.75;6128903;23;20013;-84
2023/11/18 09:18:46;;;;;;;2.80;0.82;;;;;;;7.43;70.38;99115.84;6129244;23;20418;-83
2023/11/18 09:21:15;;;;;;;4.18;1.00;;;;;;;7.60;72.38;99167.28;6129468;23;20405;-85
2023/11/18 09:23:42;;;;;;;1.10;0.57;;;;;;;7.48;70.93;99149.66;6129209;23;20071;-85
2023/11/18 09:26:09;;;;;;;1.35;0.90;;;;;;;7.64;71.98;99155.22;6128708;23;20391;-85
2023/11/18 09:28:36;;;;;;;10.27;3.60;;;;;;;7.68;71.16;99126.34;6128584;23;20005;-85
2023/11/18 09:31:04;;;;;;;11.50;4.53;;;;;;;7.93;69.19;99157.31;6128896;23;20565;-86
2023/11/18 09:33:34;;;;;;;1.95;0.93;;;;;;;7.71;69.44;99155.13;6127528;23;20048;-83
2023/11/18 09:36:07;;;;;;;1.83;0.93;;;;;;;7.58;69.05;99118.13;6127272;23;20033;-85
2023/11/18 09:38:37;;;;;;;1.88;1.05;;;;;;;7.65;69.12;99135.59;6127594;23;20010;-85
2023/11/18 09:41:07;;;;;;;1.77;0.85;;;;;;;7.59;70.04;99136.47;6127452;23;20604;-85
2023/11/18 09:43:54;;;;;;;1.38;0.90;;;;;;;7.75;69.94;99134.25;6127234;23;20101;-85
2023/11/18 09:46:24;;;;;;;2.83;1.05;;;;;;;7.78;69.45;99144.41;6039364;23;20007;-84
2023/11/18 09:49:08;;;;;;;0.93;0.50;;;;;;;7.75;68.49;99150.19;6038983;23;20045;-85
2023/11/18 09:51:38;;;;;;;1.42;0.65;;;;;;;7.73;68.11;99136.31;6062710;23;20023;-86
2023/11/18 09:54:32;;;;;;;3.13;1.30;;;;;;;7.64;68.29;99112.75;6038708;23;20011;-85
2023/11/18 09:57:08;;;;;;;1.75;1.15;;;;;;;7.55;69.08;99106.09;6035306;23;20074;-86
2023/11/18 09:59:46;;;;;;;2.92;0.85;;;;;;;7.79;69.61;99111.56;6038810;23;20011;-87
2023/11/18 10:02:14;;;;;;;1.58;0.90;;;;;;;7.65;69.03;99098.44;6038730;23;20031;-85
2023/11/18 10:04:39;;;;;;;0.93;0.60;;;;;;;7.96;68.57;99104.56;6038462;23;20114;-84
2023/11/18 10:07:11;;;;;;;1.25;0.70;;;;;;;7.80;67.02;99081.31;6038522;23;20061;-84
2023/11/18 10:09:39;;;;;;;1.92;1.00;;;;;;;7.82;68.81;99090.66;6038894;23;20014;-84
2023/11/18 10:12:07;;;;;;;0.93;0.80;;;;;;;7.91;67.36;99069.94;6038767;23;20071;-86
2023/11/18 10:14:37;;;;;;;1.45;1.05;;;;;;;7.85;68.55;99054.91;6062371;23;20014;-86
2023/11/18 10:17:06;;;;;;;1.70;0.90;;;;;;;7.98;67.75;99080.44;6073142;23;20720;-84
2023/11/18 10:19:59;;;;;;;5.03;1.30;;;;;;;8.24;68.04;99087.22;6126952;23;20017;-86
2023/11/18 10:22:29;;;;;;;2.30;1.00;;;;;;;8.02;66.90;99081.63;6126558;23;20006;-85
2023/11/18 10:24:55;;;;;;;3.95;1.00;;;;;;;8.11;66.88;99074.13;6126818;23;20072;-85
2023/11/18 10:27:25;;;;;;;1.27;0.93;;;;;;;8.20;66.75;99080.75;6126492;23;20009;-84
2023/11/18 10:29:58;;;;;;;1.17;0.80;;;;;;;8.19;66.97;99044.59;6127066;23;20002;-86
2023/11/18 10:32:27;;;;;;;1.60;0.80;;;;;;;8.57;66.97;99062.00;6127155;23;20424;-86
2023/11/18 10:34:59;;;;;;;2.08;0.90;;;;;;;8.49;66.29;99049.06;6126644;23;20005;-85
2023/11/18 10:37:30;;;;;;;1.15;0.90;;;;;;;8.40;66.02;99046.72;6126443;23;20036;-85
2023/11/18 10:39:57;;;;;;;1.10;0.80;;;;;;;8.73;65.78;99066.63;6126980;23;20010;-86
2023/11/18 10:42:26;;;;;;;4.95;1.02;;;;;;;8.62;65.72;99054.13;6127084;23;20017;-85
2023/11/18 10:44:59;;;;;;;1.08;0.80;;;;;;;8.65;66.23;99053.69;6126718;23;20037;-85
2023/11/18 10:47:28;;;;;;;2.53;0.90;;;;;;;9.09;64.37;99096.66;6126576;23;20005;-86
2023/11/18 10:49:57;;;;;;;2.00;0.63;;;;;;;8.62;63.49;99064.78;6126431;23;20084;-85
2023/11/18 10:52:25;;;;;;;2.05;0.80;;;;;;;8.72;64.82;99080.97;6152489;23;20014;-85
2023/11/18 10:54:54;;;;;;;;;;;;;;;8.76;64.12;99082.13;6127153;23;20017;-85
2023/11/18 10:57:20;;;;;;;0.93;0.68;;;;;;;8.67;64.61;99051.63;6126351;23;19909;-85
2023/11/18 10:59:59;;;;;;;3.85;0.70;;;;;;;8.73;64.00;99050.69;6126320;23;20014;-84
2023/11/18 11:02:25;;;;;;;1.25;0.80;;;;;;;8.47;63.32;99043.16;6127089;23;20010;-84
2023/11/18 11:04:50;;;;;;;3.28;1.27;;;;;;;8.83;62.95;99055.44;6126659;23;20041;-84
2023/11/18 11:07:19;;;;;;;1.13;0.75;;;;;;;9.00;62.91;99074.94;6126953;23;20012;-86
2023/11/18 11:09:45;;;;;;;0.70;0.70;;;;;;;9.10;63.60;99071.69;6126493;23;20490;-86
2023/11/18 11:12:16;;;;;;;3.53;1.02;;;;;;;9.11;63.34;99067.97;6126732;23;20009;-84
2023/11/18 11:15:13;;;;;;;0.70;0.60;;;;;;;8.96;62.03;99054.38;6126397;23;20096;-85
2023/11/18 11:17:45;;;;;;;0.73;0.63;;;;;;;8.85;62.23;99086.06;6125840;23;20041;-85
2023/11/18 11:20:48;;;;;;;1.95;0.82;;;;;;;8.82;62.66;99089.16;6126877;23;20018;-86
2023/11/18 11:23:53;;;;;;;2.30;1.00;;;;;;;8.88;62.95;99089.28;6145990;23;20064;-85
2023/11/18 11:26:42;;;;;;;1.08;0.60;;;;;;;8.76;61.83;99082.13;6092481;23;20017;-85
2023/11/18 11:29:17;;;;;;;1.60;0.90;;;;;;;8.96;62.30;99091.59;6126515;23;20096;-84
2023/11/18 11:31:52;;;;;;;1.98;0.95;;;;;;;8.69;61.67;99070.81;6126182;23;20044;-84
2023/11/18 11:34:20;;;;;;;3.42;1.80;;;;;;;8.78;63.53;99090.66;6126637;23;20107;-84
2023/11/18 11:36:50;;;;;;;0.70;0.68;;;;;;;8.61;62.58;99071.94;6125719;23;20009;-85
2023/11/18 11:39:30;;;;;;;1.63;0.98;;;;;;;8.74;62.39;99089.50;6126248;23;20010;-84